<?xml version="1.0" encoding="UTF-8" standalone="no" ?>
<gpx xmlns="http://www.topografix.com/GPX/1/1" xmlns:xsi="http://www.w3.org/2001/XMLSchema-instance" xsi:schemaLocation="http://www.topografix.com/GPX/1/1 http://www.topografix.com/GPX/1/1/gpx.xsd" version="1.1" creator="VisuGPX - https://www.visugpx.com">
  <metadata>
    <name>Reze_Autour_8-19km</name>
    <desc><![CDATA[gnerando idor:5792578_5792726_5814453_5825877_6470772_8005623_8320604_9624624__]]></desc>
  </metadata>
  <trk>
    <name><![CDATA[Reze_Trentemoult BasseIle_10.8km-6470772]]></name>
    <extensions>
      <line xmlns="http://www.topografix.com/GPX/gpx_style/0/2">
        <color>FF00FF</color>
        <width>4</width>
      </line>
    </extensions>
    <trkseg>
      <trkpt lat="47.21016" lon="-1.56287">
        <ele>10</ele>
        <time>2023-11-11T18:52:13Z</time>
      </trkpt>
      <trkpt lat="47.20997" lon="-1.5628">
        <ele>8</ele>
        <time>2023-11-11T18:52:39Z</time>
      </trkpt>
      <trkpt lat="47.20995" lon="-1.56308">
        <ele>9</ele>
        <time>2023-11-11T18:53:05Z</time>
      </trkpt>
      <trkpt lat="47.20994" lon="-1.56335">
        <ele>10</ele>
        <time>2023-11-11T18:53:29Z</time>
      </trkpt>
      <trkpt lat="47.20986" lon="-1.5636">
        <ele>10</ele>
        <time>2023-11-11T18:53:54Z</time>
      </trkpt>
      <trkpt lat="47.20977" lon="-1.56385">
        <ele>9</ele>
        <time>2023-11-11T18:54:20Z</time>
      </trkpt>
      <trkpt lat="47.20968" lon="-1.56409">
        <ele>8</ele>
        <time>2023-11-11T18:54:45Z</time>
      </trkpt>
      <trkpt lat="47.20963" lon="-1.56435">
        <ele>8</ele>
        <time>2023-11-11T18:55:09Z</time>
      </trkpt>
      <trkpt lat="47.20958" lon="-1.56462">
        <ele>8</ele>
        <time>2023-11-11T18:55:35Z</time>
      </trkpt>
      <trkpt lat="47.20951" lon="-1.56486">
        <ele>7</ele>
        <time>2023-11-11T18:55:58Z</time>
      </trkpt>
      <trkpt lat="47.20943" lon="-1.56512">
        <ele>7</ele>
        <time>2023-11-11T18:56:24Z</time>
      </trkpt>
      <trkpt lat="47.20937" lon="-1.56538">
        <ele>7</ele>
        <time>2023-11-11T18:56:49Z</time>
      </trkpt>
      <trkpt lat="47.20926" lon="-1.5656">
        <ele>6</ele>
        <time>2023-11-11T18:57:14Z</time>
      </trkpt>
      <trkpt lat="47.2092" lon="-1.56585">
        <ele>6</ele>
        <time>2023-11-11T18:57:38Z</time>
      </trkpt>
      <trkpt lat="47.20911" lon="-1.56609">
        <ele>6</ele>
        <time>2023-11-11T18:58:03Z</time>
      </trkpt>
      <trkpt lat="47.209" lon="-1.56632">
        <ele>5</ele>
        <time>2023-11-11T18:58:28Z</time>
      </trkpt>
      <trkpt lat="47.20893" lon="-1.56658">
        <ele>5</ele>
        <time>2023-11-11T18:58:54Z</time>
      </trkpt>
      <trkpt lat="47.20883" lon="-1.56681">
        <ele>4</ele>
        <time>2023-11-11T18:59:18Z</time>
      </trkpt>
      <trkpt lat="47.20878" lon="-1.56708">
        <ele>4</ele>
        <time>2023-11-11T18:59:44Z</time>
      </trkpt>
      <trkpt lat="47.20862" lon="-1.56759">
        <ele>3</ele>
        <time>2023-11-11T19:00:35Z</time>
      </trkpt>
      <trkpt lat="47.20854" lon="-1.56783">
        <ele>3</ele>
        <time>2023-11-11T19:00:59Z</time>
      </trkpt>
      <trkpt lat="47.20842" lon="-1.56803">
        <ele>3</ele>
        <time>2023-11-11T19:01:23Z</time>
      </trkpt>
      <trkpt lat="47.20826" lon="-1.56853">
        <ele>3</ele>
        <time>2023-11-11T19:02:13Z</time>
      </trkpt>
      <trkpt lat="47.20811" lon="-1.56905">
        <ele>4</ele>
        <time>2023-11-11T19:03:04Z</time>
      </trkpt>
      <trkpt lat="47.20804" lon="-1.56931">
        <ele>4</ele>
        <time>2023-11-11T19:03:30Z</time>
      </trkpt>
      <trkpt lat="47.20796" lon="-1.56955">
        <ele>5</ele>
        <time>2023-11-11T19:03:54Z</time>
      </trkpt>
      <trkpt lat="47.20786" lon="-1.56978">
        <ele>5</ele>
        <time>2023-11-11T19:04:19Z</time>
      </trkpt>
      <trkpt lat="47.20777" lon="-1.57001">
        <ele>5</ele>
        <time>2023-11-11T19:04:43Z</time>
      </trkpt>
      <trkpt lat="47.20766" lon="-1.57024">
        <ele>4</ele>
        <time>2023-11-11T19:05:08Z</time>
      </trkpt>
      <trkpt lat="47.20746" lon="-1.5707">
        <ele>4</ele>
        <time>2023-11-11T19:05:58Z</time>
      </trkpt>
      <trkpt lat="47.20734" lon="-1.57093">
        <ele>4</ele>
        <time>2023-11-11T19:06:24Z</time>
      </trkpt>
      <trkpt lat="47.20724" lon="-1.57116">
        <ele>5</ele>
        <time>2023-11-11T19:06:49Z</time>
      </trkpt>
      <trkpt lat="47.20717" lon="-1.57141">
        <ele>5</ele>
        <time>2023-11-11T19:07:13Z</time>
      </trkpt>
      <trkpt lat="47.20705" lon="-1.57162">
        <ele>5</ele>
        <time>2023-11-11T19:07:38Z</time>
      </trkpt>
      <trkpt lat="47.2069" lon="-1.57179">
        <ele>4</ele>
        <time>2023-11-11T19:08:03Z</time>
      </trkpt>
      <trkpt lat="47.20675" lon="-1.57195">
        <ele>4</ele>
        <time>2023-11-11T19:08:28Z</time>
      </trkpt>
      <trkpt lat="47.20647" lon="-1.57232">
        <ele>4</ele>
        <time>2023-11-11T19:09:18Z</time>
      </trkpt>
      <trkpt lat="47.20617" lon="-1.57264">
        <ele>5</ele>
        <time>2023-11-11T19:10:08Z</time>
      </trkpt>
      <trkpt lat="47.20602" lon="-1.57281">
        <ele>6</ele>
        <time>2023-11-11T19:10:33Z</time>
      </trkpt>
      <trkpt lat="47.20585" lon="-1.57291">
        <ele>6</ele>
        <time>2023-11-11T19:10:58Z</time>
      </trkpt>
      <trkpt lat="47.2057" lon="-1.57306">
        <ele>6</ele>
        <time>2023-11-11T19:11:22Z</time>
      </trkpt>
      <trkpt lat="47.20556" lon="-1.5729">
        <ele>4</ele>
        <time>2023-11-11T19:11:45Z</time>
      </trkpt>
      <trkpt lat="47.20543" lon="-1.57271">
        <ele>3</ele>
        <time>2023-11-11T19:12:10Z</time>
      </trkpt>
      <trkpt lat="47.20524" lon="-1.57278">
        <ele>2</ele>
        <time>2023-11-11T19:12:36Z</time>
      </trkpt>
      <trkpt lat="47.20508" lon="-1.5729">
        <ele>1</ele>
        <time>2023-11-11T19:13:00Z</time>
      </trkpt>
      <trkpt lat="47.20477" lon="-1.5732">
        <time>2023-11-11T19:13:49Z</time>
      </trkpt>
      <trkpt lat="47.2046" lon="-1.57332">
        <time>2023-11-11T19:14:15Z</time>
      </trkpt>
      <trkpt lat="47.20426" lon="-1.5736">
        <time>2023-11-11T19:15:07Z</time>
      </trkpt>
      <trkpt lat="47.2041" lon="-1.57375">
        <time>2023-11-11T19:15:32Z</time>
      </trkpt>
      <trkpt lat="47.20374" lon="-1.57396">
        <time>2023-11-11T19:16:24Z</time>
      </trkpt>
      <trkpt lat="47.20338" lon="-1.57416">
        <time>2023-11-11T19:17:15Z</time>
      </trkpt>
      <trkpt lat="47.2032" lon="-1.57426">
        <time>2023-11-11T19:17:41Z</time>
      </trkpt>
      <trkpt lat="47.20302" lon="-1.57439">
        <ele>1</ele>
        <time>2023-11-11T19:18:07Z</time>
      </trkpt>
      <trkpt lat="47.20283" lon="-1.57454">
        <ele>1</ele>
        <time>2023-11-11T19:18:36Z</time>
      </trkpt>
      <trkpt lat="47.20247" lon="-1.57478">
        <ele>2</ele>
        <time>2023-11-11T19:19:29Z</time>
      </trkpt>
      <trkpt lat="47.20191" lon="-1.57518">
        <ele>3</ele>
        <time>2023-11-11T19:20:52Z</time>
      </trkpt>
      <trkpt lat="47.20172" lon="-1.5753">
        <ele>2</ele>
        <time>2023-11-11T19:21:20Z</time>
      </trkpt>
      <trkpt lat="47.20153" lon="-1.57542">
        <ele>2</ele>
        <time>2023-11-11T19:21:47Z</time>
      </trkpt>
      <trkpt lat="47.20115" lon="-1.57568">
        <ele>2</ele>
        <time>2023-11-11T19:22:43Z</time>
      </trkpt>
      <trkpt lat="47.20097" lon="-1.5758">
        <ele>2</ele>
        <time>2023-11-11T19:23:09Z</time>
      </trkpt>
      <trkpt lat="47.20057" lon="-1.57602">
        <ele>2</ele>
        <time>2023-11-11T19:24:06Z</time>
      </trkpt>
      <trkpt lat="47.20036" lon="-1.57615">
        <ele>2</ele>
        <time>2023-11-11T19:24:37Z</time>
      </trkpt>
      <trkpt lat="47.20017" lon="-1.57625">
        <ele>2</ele>
        <time>2023-11-11T19:25:04Z</time>
      </trkpt>
      <trkpt lat="47.19997" lon="-1.57638">
        <ele>2</ele>
        <time>2023-11-11T19:25:33Z</time>
      </trkpt>
      <trkpt lat="47.19979" lon="-1.57653">
        <ele>1</ele>
        <time>2023-11-11T19:26:00Z</time>
      </trkpt>
      <trkpt lat="47.19963" lon="-1.57671">
        <ele>1</ele>
        <time>2023-11-11T19:26:27Z</time>
      </trkpt>
      <trkpt lat="47.19947" lon="-1.57691">
        <ele>1</ele>
        <time>2023-11-11T19:26:55Z</time>
      </trkpt>
      <trkpt lat="47.19934" lon="-1.57711">
        <ele>1</ele>
        <time>2023-11-11T19:27:20Z</time>
      </trkpt>
      <trkpt lat="47.1992" lon="-1.57734">
        <time>2023-11-11T19:27:48Z</time>
      </trkpt>
      <trkpt lat="47.19892" lon="-1.57777">
        <ele>1</ele>
        <time>2023-11-11T19:28:42Z</time>
      </trkpt>
      <trkpt lat="47.19866" lon="-1.57823">
        <ele>1</ele>
        <time>2023-11-11T19:29:37Z</time>
      </trkpt>
      <trkpt lat="47.19852" lon="-1.57845">
        <ele>1</ele>
        <time>2023-11-11T19:30:04Z</time>
      </trkpt>
      <trkpt lat="47.19838" lon="-1.57869">
        <time>2023-11-11T19:30:33Z</time>
      </trkpt>
      <trkpt lat="47.19826" lon="-1.57893">
        <time>2023-11-11T19:31:00Z</time>
      </trkpt>
      <trkpt lat="47.19814" lon="-1.57917">
        <time>2023-11-11T19:31:27Z</time>
      </trkpt>
      <trkpt lat="47.19803" lon="-1.57942">
        <time>2023-11-11T19:31:54Z</time>
      </trkpt>
      <trkpt lat="47.19793" lon="-1.57968">
        <ele>1</ele>
        <time>2023-11-11T19:32:21Z</time>
      </trkpt>
      <trkpt lat="47.19781" lon="-1.57993">
        <ele>1</ele>
        <time>2023-11-11T19:32:49Z</time>
      </trkpt>
      <trkpt lat="47.19768" lon="-1.58017">
        <time>2023-11-11T19:33:16Z</time>
      </trkpt>
      <trkpt lat="47.19755" lon="-1.58039">
        <time>2023-11-11T19:33:43Z</time>
      </trkpt>
      <trkpt lat="47.19727" lon="-1.58082">
        <time>2023-11-11T19:34:37Z</time>
      </trkpt>
      <trkpt lat="47.1971" lon="-1.581">
        <time>2023-11-11T19:35:05Z</time>
      </trkpt>
      <trkpt lat="47.19692" lon="-1.58115">
        <time>2023-11-11T19:35:32Z</time>
      </trkpt>
      <trkpt lat="47.19674" lon="-1.58123">
        <time>2023-11-11T19:35:58Z</time>
      </trkpt>
      <trkpt lat="47.19655" lon="-1.5813">
        <time>2023-11-11T19:36:24Z</time>
      </trkpt>
      <trkpt lat="47.19635" lon="-1.58139">
        <time>2023-11-11T19:36:52Z</time>
      </trkpt>
      <trkpt lat="47.19618" lon="-1.5815">
        <ele>1</ele>
        <time>2023-11-11T19:37:16Z</time>
      </trkpt>
      <trkpt lat="47.19601" lon="-1.58166">
        <ele>1</ele>
        <time>2023-11-11T19:37:43Z</time>
      </trkpt>
      <trkpt lat="47.19587" lon="-1.58182">
        <ele>1</ele>
        <time>2023-11-11T19:38:07Z</time>
      </trkpt>
      <trkpt lat="47.19574" lon="-1.58203">
        <ele>1</ele>
        <time>2023-11-11T19:38:33Z</time>
      </trkpt>
      <trkpt lat="47.1956" lon="-1.58221">
        <ele>2</ele>
        <time>2023-11-11T19:38:58Z</time>
      </trkpt>
      <trkpt lat="47.19542" lon="-1.58227">
        <ele>3</ele>
        <time>2023-11-11T19:39:22Z</time>
      </trkpt>
      <trkpt lat="47.19524" lon="-1.58235">
        <ele>4</ele>
        <time>2023-11-11T19:39:47Z</time>
      </trkpt>
      <trkpt lat="47.19518" lon="-1.58261">
        <ele>4</ele>
        <time>2023-11-11T19:40:12Z</time>
      </trkpt>
      <trkpt lat="47.19508" lon="-1.58285">
        <ele>4</ele>
        <time>2023-11-11T19:40:38Z</time>
      </trkpt>
      <trkpt lat="47.19495" lon="-1.58303">
        <ele>3</ele>
        <time>2023-11-11T19:41:01Z</time>
      </trkpt>
      <trkpt lat="47.19485" lon="-1.58327">
        <ele>3</ele>
        <time>2023-11-11T19:41:27Z</time>
      </trkpt>
      <trkpt lat="47.19474" lon="-1.5835">
        <ele>3</ele>
        <time>2023-11-11T19:41:53Z</time>
      </trkpt>
      <trkpt lat="47.19453" lon="-1.58396">
        <ele>3</ele>
        <time>2023-11-11T19:42:43Z</time>
      </trkpt>
      <trkpt lat="47.19431" lon="-1.58441">
        <ele>3</ele>
        <time>2023-11-11T19:43:33Z</time>
      </trkpt>
      <trkpt lat="47.1942" lon="-1.58463">
        <ele>3</ele>
        <time>2023-11-11T19:43:58Z</time>
      </trkpt>
      <trkpt lat="47.19404" lon="-1.58479">
        <ele>4</ele>
        <time>2023-11-11T19:44:24Z</time>
      </trkpt>
      <trkpt lat="47.19391" lon="-1.58498">
        <ele>4</ele>
        <time>2023-11-11T19:44:48Z</time>
      </trkpt>
      <trkpt lat="47.1938" lon="-1.58521">
        <ele>4</ele>
        <time>2023-11-11T19:45:14Z</time>
      </trkpt>
      <trkpt lat="47.19371" lon="-1.58544">
        <ele>4</ele>
        <time>2023-11-11T19:45:38Z</time>
      </trkpt>
      <trkpt lat="47.19363" lon="-1.58569">
        <ele>4</ele>
        <time>2023-11-11T19:46:03Z</time>
      </trkpt>
      <trkpt lat="47.19353" lon="-1.58592">
        <ele>4</ele>
        <time>2023-11-11T19:46:27Z</time>
      </trkpt>
      <trkpt lat="47.19344" lon="-1.58616">
        <ele>5</ele>
        <time>2023-11-11T19:46:52Z</time>
      </trkpt>
      <trkpt lat="47.19326" lon="-1.58614">
        <ele>5</ele>
        <time>2023-11-11T19:47:16Z</time>
      </trkpt>
      <trkpt lat="47.19317" lon="-1.5859">
        <ele>5</ele>
        <time>2023-11-11T19:47:41Z</time>
      </trkpt>
      <trkpt lat="47.19297" lon="-1.58545">
        <ele>5</ele>
        <time>2023-11-11T19:48:30Z</time>
      </trkpt>
      <trkpt lat="47.19286" lon="-1.58523">
        <ele>5</ele>
        <time>2023-11-11T19:48:55Z</time>
      </trkpt>
      <trkpt lat="47.19269" lon="-1.58534">
        <ele>5</ele>
        <time>2023-11-11T19:49:20Z</time>
      </trkpt>
      <trkpt lat="47.19258" lon="-1.58556">
        <ele>5</ele>
        <time>2023-11-11T19:49:44Z</time>
      </trkpt>
      <trkpt lat="47.19244" lon="-1.58575">
        <ele>5</ele>
        <time>2023-11-11T19:50:10Z</time>
      </trkpt>
      <trkpt lat="47.19226" lon="-1.58569">
        <ele>5</ele>
        <time>2023-11-11T19:50:34Z</time>
      </trkpt>
      <trkpt lat="47.19209" lon="-1.58581">
        <ele>5</ele>
        <time>2023-11-11T19:51:00Z</time>
      </trkpt>
      <trkpt lat="47.19191" lon="-1.58578">
        <ele>5</ele>
        <time>2023-11-11T19:51:24Z</time>
      </trkpt>
      <trkpt lat="47.19171" lon="-1.58534">
        <ele>6</ele>
        <time>2023-11-11T19:52:12Z</time>
      </trkpt>
      <trkpt lat="47.19156" lon="-1.5852">
        <ele>6</ele>
        <time>2023-11-11T19:52:35Z</time>
      </trkpt>
      <trkpt lat="47.19137" lon="-1.58522">
        <ele>5</ele>
        <time>2023-11-11T19:53:01Z</time>
      </trkpt>
      <trkpt lat="47.19122" lon="-1.58506">
        <ele>5</ele>
        <time>2023-11-11T19:53:26Z</time>
      </trkpt>
      <trkpt lat="47.19105" lon="-1.58517">
        <ele>5</ele>
        <time>2023-11-11T19:53:50Z</time>
      </trkpt>
      <trkpt lat="47.19088" lon="-1.58531">
        <ele>5</ele>
        <time>2023-11-11T19:54:16Z</time>
      </trkpt>
      <trkpt lat="47.19072" lon="-1.58547">
        <ele>5</ele>
        <time>2023-11-11T19:54:42Z</time>
      </trkpt>
      <trkpt lat="47.19056" lon="-1.58561">
        <ele>6</ele>
        <time>2023-11-11T19:55:07Z</time>
      </trkpt>
      <trkpt lat="47.19038" lon="-1.58556">
        <ele>6</ele>
        <time>2023-11-11T19:55:31Z</time>
      </trkpt>
      <trkpt lat="47.19028" lon="-1.58533">
        <ele>6</ele>
        <time>2023-11-11T19:55:56Z</time>
      </trkpt>
      <trkpt lat="47.19021" lon="-1.58509">
        <ele>6</ele>
        <time>2023-11-11T19:56:20Z</time>
      </trkpt>
      <trkpt lat="47.19009" lon="-1.58488">
        <ele>6</ele>
        <time>2023-11-11T19:56:45Z</time>
      </trkpt>
      <trkpt lat="47.18999" lon="-1.58464">
        <ele>6</ele>
        <time>2023-11-11T19:57:10Z</time>
      </trkpt>
      <trkpt lat="47.1899" lon="-1.5844">
        <ele>6</ele>
        <time>2023-11-11T19:57:35Z</time>
      </trkpt>
      <trkpt lat="47.18979" lon="-1.58417">
        <ele>6</ele>
        <time>2023-11-11T19:58:01Z</time>
      </trkpt>
      <trkpt lat="47.18968" lon="-1.58395">
        <ele>5</ele>
        <time>2023-11-11T19:58:25Z</time>
      </trkpt>
      <trkpt lat="47.18959" lon="-1.58373">
        <ele>5</ele>
        <time>2023-11-11T19:58:49Z</time>
      </trkpt>
      <trkpt lat="47.18949" lon="-1.58349">
        <ele>4</ele>
        <time>2023-11-11T19:59:14Z</time>
      </trkpt>
      <trkpt lat="47.18945" lon="-1.58321">
        <ele>4</ele>
        <time>2023-11-11T19:59:40Z</time>
      </trkpt>
      <trkpt lat="47.18943" lon="-1.58295">
        <ele>5</ele>
        <time>2023-11-11T20:00:04Z</time>
      </trkpt>
      <trkpt lat="47.18947" lon="-1.58268">
        <ele>5</ele>
        <time>2023-11-11T20:00:29Z</time>
      </trkpt>
      <trkpt lat="47.18957" lon="-1.58246">
        <ele>5</ele>
        <time>2023-11-11T20:00:53Z</time>
      </trkpt>
      <trkpt lat="47.1897" lon="-1.58226">
        <ele>5</ele>
        <time>2023-11-11T20:01:18Z</time>
      </trkpt>
      <trkpt lat="47.18979" lon="-1.58203">
        <ele>5</ele>
        <time>2023-11-11T20:01:42Z</time>
      </trkpt>
      <trkpt lat="47.18986" lon="-1.58177">
        <ele>4</ele>
        <time>2023-11-11T20:02:08Z</time>
      </trkpt>
      <trkpt lat="47.18993" lon="-1.58152">
        <ele>4</ele>
        <time>2023-11-11T20:02:32Z</time>
      </trkpt>
      <trkpt lat="47.19002" lon="-1.58129">
        <ele>4</ele>
        <time>2023-11-11T20:02:56Z</time>
      </trkpt>
      <trkpt lat="47.19011" lon="-1.58104">
        <ele>4</ele>
        <time>2023-11-11T20:03:22Z</time>
      </trkpt>
      <trkpt lat="47.19018" lon="-1.5808">
        <ele>4</ele>
        <time>2023-11-11T20:03:45Z</time>
      </trkpt>
      <trkpt lat="47.19026" lon="-1.58056">
        <ele>4</ele>
        <time>2023-11-11T20:04:10Z</time>
      </trkpt>
      <trkpt lat="47.19035" lon="-1.5803">
        <ele>4</ele>
        <time>2023-11-11T20:04:36Z</time>
      </trkpt>
      <trkpt lat="47.19059" lon="-1.57957">
        <ele>4</ele>
        <time>2023-11-11T20:05:50Z</time>
      </trkpt>
      <trkpt lat="47.19067" lon="-1.57932">
        <ele>3</ele>
        <time>2023-11-11T20:06:15Z</time>
      </trkpt>
      <trkpt lat="47.19078" lon="-1.57909">
        <ele>3</ele>
        <time>2023-11-11T20:06:40Z</time>
      </trkpt>
      <trkpt lat="47.19088" lon="-1.57887">
        <ele>3</ele>
        <time>2023-11-11T20:07:04Z</time>
      </trkpt>
      <trkpt lat="47.19097" lon="-1.57863">
        <ele>3</ele>
        <time>2023-11-11T20:07:29Z</time>
      </trkpt>
      <trkpt lat="47.19106" lon="-1.57839">
        <ele>4</ele>
        <time>2023-11-11T20:07:54Z</time>
      </trkpt>
      <trkpt lat="47.19115" lon="-1.57814">
        <ele>4</ele>
        <time>2023-11-11T20:08:20Z</time>
      </trkpt>
      <trkpt lat="47.19124" lon="-1.5779">
        <ele>4</ele>
        <time>2023-11-11T20:08:44Z</time>
      </trkpt>
      <trkpt lat="47.19135" lon="-1.57768">
        <ele>5</ele>
        <time>2023-11-11T20:09:09Z</time>
      </trkpt>
      <trkpt lat="47.19145" lon="-1.57745">
        <ele>5</ele>
        <time>2023-11-11T20:09:34Z</time>
      </trkpt>
      <trkpt lat="47.19154" lon="-1.57722">
        <ele>5</ele>
        <time>2023-11-11T20:09:58Z</time>
      </trkpt>
      <trkpt lat="47.19163" lon="-1.57698">
        <ele>6</ele>
        <time>2023-11-11T20:10:23Z</time>
      </trkpt>
      <trkpt lat="47.19172" lon="-1.57672">
        <ele>6</ele>
        <time>2023-11-11T20:10:49Z</time>
      </trkpt>
      <trkpt lat="47.1918" lon="-1.57647">
        <ele>6</ele>
        <time>2023-11-11T20:11:14Z</time>
      </trkpt>
      <trkpt lat="47.19184" lon="-1.57621">
        <ele>7</ele>
        <time>2023-11-11T20:11:39Z</time>
      </trkpt>
      <trkpt lat="47.19192" lon="-1.57596">
        <ele>7</ele>
        <time>2023-11-11T20:12:04Z</time>
      </trkpt>
      <trkpt lat="47.192" lon="-1.57571">
        <ele>7</ele>
        <time>2023-11-11T20:12:29Z</time>
      </trkpt>
      <trkpt lat="47.1921" lon="-1.57547">
        <ele>7</ele>
        <time>2023-11-11T20:12:54Z</time>
      </trkpt>
      <trkpt lat="47.1921" lon="-1.5752">
        <ele>7</ele>
        <time>2023-11-11T20:13:19Z</time>
      </trkpt>
      <trkpt lat="47.19218" lon="-1.57496">
        <ele>7</ele>
        <time>2023-11-11T20:13:43Z</time>
      </trkpt>
      <trkpt lat="47.19227" lon="-1.57471">
        <ele>7</ele>
        <time>2023-11-11T20:14:09Z</time>
      </trkpt>
      <trkpt lat="47.19236" lon="-1.57448">
        <ele>7</ele>
        <time>2023-11-11T20:14:33Z</time>
      </trkpt>
      <trkpt lat="47.19251" lon="-1.57398">
        <ele>7</ele>
        <time>2023-11-11T20:15:22Z</time>
      </trkpt>
      <trkpt lat="47.1926" lon="-1.57374">
        <ele>8</ele>
        <time>2023-11-11T20:15:47Z</time>
      </trkpt>
      <trkpt lat="47.19269" lon="-1.5735">
        <ele>8</ele>
        <time>2023-11-11T20:16:12Z</time>
      </trkpt>
      <trkpt lat="47.19278" lon="-1.57325">
        <ele>8</ele>
        <time>2023-11-11T20:16:38Z</time>
      </trkpt>
      <trkpt lat="47.19285" lon="-1.573">
        <ele>8</ele>
        <time>2023-11-11T20:17:02Z</time>
      </trkpt>
      <trkpt lat="47.19292" lon="-1.57276">
        <ele>8</ele>
        <time>2023-11-11T20:17:26Z</time>
      </trkpt>
      <trkpt lat="47.19299" lon="-1.5725">
        <ele>9</ele>
        <time>2023-11-11T20:17:51Z</time>
      </trkpt>
      <trkpt lat="47.19306" lon="-1.57224">
        <ele>9</ele>
        <time>2023-11-11T20:18:17Z</time>
      </trkpt>
      <trkpt lat="47.19311" lon="-1.57198">
        <ele>9</ele>
        <time>2023-11-11T20:18:41Z</time>
      </trkpt>
      <trkpt lat="47.19317" lon="-1.57172">
        <ele>10</ele>
        <time>2023-11-11T20:19:06Z</time>
      </trkpt>
      <trkpt lat="47.19322" lon="-1.57146">
        <ele>9</ele>
        <time>2023-11-11T20:19:30Z</time>
      </trkpt>
      <trkpt lat="47.19326" lon="-1.5712">
        <ele>9</ele>
        <time>2023-11-11T20:19:55Z</time>
      </trkpt>
      <trkpt lat="47.19333" lon="-1.57094">
        <ele>8</ele>
        <time>2023-11-11T20:20:20Z</time>
      </trkpt>
      <trkpt lat="47.19348" lon="-1.5708">
        <ele>8</ele>
        <time>2023-11-11T20:20:44Z</time>
      </trkpt>
      <trkpt lat="47.19367" lon="-1.57082">
        <ele>7</ele>
        <time>2023-11-11T20:21:09Z</time>
      </trkpt>
      <trkpt lat="47.19404" lon="-1.57091">
        <ele>7</ele>
        <time>2023-11-11T20:21:59Z</time>
      </trkpt>
      <trkpt lat="47.19422" lon="-1.57094">
        <ele>6</ele>
        <time>2023-11-11T20:22:23Z</time>
      </trkpt>
      <trkpt lat="47.19439" lon="-1.571">
        <ele>7</ele>
        <time>2023-11-11T20:22:47Z</time>
      </trkpt>
      <trkpt lat="47.19454" lon="-1.57118">
        <ele>7</ele>
        <time>2023-11-11T20:23:13Z</time>
      </trkpt>
      <trkpt lat="47.19473" lon="-1.5711">
        <ele>7</ele>
        <time>2023-11-11T20:23:39Z</time>
      </trkpt>
      <trkpt lat="47.19491" lon="-1.57108">
        <ele>7</ele>
        <time>2023-11-11T20:24:03Z</time>
      </trkpt>
      <trkpt lat="47.19509" lon="-1.57114">
        <ele>7</ele>
        <time>2023-11-11T20:24:28Z</time>
      </trkpt>
      <trkpt lat="47.19528" lon="-1.57118">
        <ele>7</ele>
        <time>2023-11-11T20:24:53Z</time>
      </trkpt>
      <trkpt lat="47.19546" lon="-1.57125">
        <ele>7</ele>
        <time>2023-11-11T20:25:18Z</time>
      </trkpt>
      <trkpt lat="47.19564" lon="-1.5713">
        <ele>7</ele>
        <time>2023-11-11T20:25:43Z</time>
      </trkpt>
      <trkpt lat="47.19583" lon="-1.57132">
        <ele>7</ele>
        <time>2023-11-11T20:26:08Z</time>
      </trkpt>
      <trkpt lat="47.19598" lon="-1.57149">
        <ele>7</ele>
        <time>2023-11-11T20:26:33Z</time>
      </trkpt>
      <trkpt lat="47.19598" lon="-1.57177">
        <ele>7</ele>
        <time>2023-11-11T20:26:59Z</time>
      </trkpt>
      <trkpt lat="47.19595" lon="-1.57203">
        <ele>7</ele>
        <time>2023-11-11T20:27:23Z</time>
      </trkpt>
      <trkpt lat="47.19611" lon="-1.57214">
        <ele>7</ele>
        <time>2023-11-11T20:27:46Z</time>
      </trkpt>
      <trkpt lat="47.19631" lon="-1.57222">
        <ele>7</ele>
        <time>2023-11-11T20:28:14Z</time>
      </trkpt>
      <trkpt lat="47.19647" lon="-1.57233">
        <ele>7</ele>
        <time>2023-11-11T20:28:37Z</time>
      </trkpt>
      <trkpt lat="47.19666" lon="-1.57237">
        <ele>6</ele>
        <time>2023-11-11T20:29:03Z</time>
      </trkpt>
      <trkpt lat="47.1967" lon="-1.57263">
        <ele>5</ele>
        <time>2023-11-11T20:29:27Z</time>
      </trkpt>
      <trkpt lat="47.19665" lon="-1.57291">
        <ele>5</ele>
        <time>2023-11-11T20:29:53Z</time>
      </trkpt>
      <trkpt lat="47.19663" lon="-1.57318">
        <ele>4</ele>
        <time>2023-11-11T20:30:18Z</time>
      </trkpt>
      <trkpt lat="47.19661" lon="-1.57346">
        <ele>4</ele>
        <time>2023-11-11T20:30:43Z</time>
      </trkpt>
      <trkpt lat="47.19659" lon="-1.57372">
        <ele>4</ele>
        <time>2023-11-11T20:31:07Z</time>
      </trkpt>
      <trkpt lat="47.1966" lon="-1.57399">
        <ele>4</ele>
        <time>2023-11-11T20:31:32Z</time>
      </trkpt>
      <trkpt lat="47.19653" lon="-1.57423">
        <ele>4</ele>
        <time>2023-11-11T20:31:55Z</time>
      </trkpt>
      <trkpt lat="47.19643" lon="-1.57476">
        <ele>5</ele>
        <time>2023-11-11T20:32:45Z</time>
      </trkpt>
      <trkpt lat="47.19638" lon="-1.57502">
        <ele>5</ele>
        <time>2023-11-11T20:33:10Z</time>
      </trkpt>
      <trkpt lat="47.19638" lon="-1.57529">
        <ele>4</ele>
        <time>2023-11-11T20:33:34Z</time>
      </trkpt>
      <trkpt lat="47.19634" lon="-1.57555">
        <ele>4</ele>
        <time>2023-11-11T20:33:58Z</time>
      </trkpt>
      <trkpt lat="47.19633" lon="-1.57582">
        <ele>3</ele>
        <time>2023-11-11T20:34:23Z</time>
      </trkpt>
      <trkpt lat="47.19625" lon="-1.57607">
        <ele>4</ele>
        <time>2023-11-11T20:34:48Z</time>
      </trkpt>
      <trkpt lat="47.19616" lon="-1.5763">
        <ele>4</ele>
        <time>2023-11-11T20:35:12Z</time>
      </trkpt>
      <trkpt lat="47.19609" lon="-1.57655">
        <ele>5</ele>
        <time>2023-11-11T20:35:37Z</time>
      </trkpt>
      <trkpt lat="47.19597" lon="-1.57675">
        <ele>5</ele>
        <time>2023-11-11T20:36:01Z</time>
      </trkpt>
      <trkpt lat="47.19562" lon="-1.57661">
        <ele>6</ele>
        <time>2023-11-11T20:36:49Z</time>
      </trkpt>
      <trkpt lat="47.19544" lon="-1.57653">
        <ele>6</ele>
        <time>2023-11-11T20:37:14Z</time>
      </trkpt>
      <trkpt lat="47.19527" lon="-1.57664">
        <ele>5</ele>
        <time>2023-11-11T20:37:39Z</time>
      </trkpt>
      <trkpt lat="47.19521" lon="-1.5769">
        <ele>5</ele>
        <time>2023-11-11T20:38:04Z</time>
      </trkpt>
      <trkpt lat="47.19513" lon="-1.57714">
        <ele>5</ele>
        <time>2023-11-11T20:38:28Z</time>
      </trkpt>
      <trkpt lat="47.19501" lon="-1.57735">
        <ele>5</ele>
        <time>2023-11-11T20:38:53Z</time>
      </trkpt>
      <trkpt lat="47.19498" lon="-1.57763">
        <ele>5</ele>
        <time>2023-11-11T20:39:19Z</time>
      </trkpt>
      <trkpt lat="47.19492" lon="-1.57789">
        <ele>5</ele>
        <time>2023-11-11T20:39:44Z</time>
      </trkpt>
      <trkpt lat="47.19487" lon="-1.57816">
        <ele>5</ele>
        <time>2023-11-11T20:40:09Z</time>
      </trkpt>
      <trkpt lat="47.19484" lon="-1.57842">
        <ele>5</ele>
        <time>2023-11-11T20:40:33Z</time>
      </trkpt>
      <trkpt lat="47.19486" lon="-1.5787">
        <ele>4</ele>
        <time>2023-11-11T20:40:59Z</time>
      </trkpt>
      <trkpt lat="47.19493" lon="-1.57895">
        <ele>4</ele>
        <time>2023-11-11T20:41:23Z</time>
      </trkpt>
      <trkpt lat="47.19498" lon="-1.57922">
        <ele>3</ele>
        <time>2023-11-11T20:41:48Z</time>
      </trkpt>
      <trkpt lat="47.19504" lon="-1.57947">
        <ele>3</ele>
        <time>2023-11-11T20:42:12Z</time>
      </trkpt>
      <trkpt lat="47.19509" lon="-1.57974">
        <ele>3</ele>
        <time>2023-11-11T20:42:38Z</time>
      </trkpt>
      <trkpt lat="47.19513" lon="-1.58001">
        <ele>3</ele>
        <time>2023-11-11T20:43:03Z</time>
      </trkpt>
      <trkpt lat="47.19524" lon="-1.58053">
        <ele>3</ele>
        <time>2023-11-11T20:43:52Z</time>
      </trkpt>
      <trkpt lat="47.19529" lon="-1.58079">
        <ele>3</ele>
        <time>2023-11-11T20:44:17Z</time>
      </trkpt>
      <trkpt lat="47.19531" lon="-1.58106">
        <ele>3</ele>
        <time>2023-11-11T20:44:41Z</time>
      </trkpt>
      <trkpt lat="47.19527" lon="-1.58134">
        <ele>4</ele>
        <time>2023-11-11T20:45:07Z</time>
      </trkpt>
      <trkpt lat="47.19526" lon="-1.58162">
        <ele>4</ele>
        <time>2023-11-11T20:45:33Z</time>
      </trkpt>
      <trkpt lat="47.19527" lon="-1.58189">
        <ele>4</ele>
        <time>2023-11-11T20:45:57Z</time>
      </trkpt>
      <trkpt lat="47.19524" lon="-1.58216">
        <ele>4</ele>
        <time>2023-11-11T20:46:22Z</time>
      </trkpt>
      <trkpt lat="47.19523" lon="-1.58244">
        <ele>4</ele>
        <time>2023-11-11T20:46:48Z</time>
      </trkpt>
      <trkpt lat="47.19505" lon="-1.58253">
        <ele>5</ele>
        <time>2023-11-11T20:47:13Z</time>
      </trkpt>
      <trkpt lat="47.19491" lon="-1.58238">
        <ele>6</ele>
        <time>2023-11-11T20:47:36Z</time>
      </trkpt>
      <trkpt lat="47.19477" lon="-1.58219">
        <ele>6</ele>
        <time>2023-11-11T20:48:01Z</time>
      </trkpt>
      <trkpt lat="47.19472" lon="-1.58194">
        <ele>6</ele>
        <time>2023-11-11T20:48:25Z</time>
      </trkpt>
      <trkpt lat="47.19479" lon="-1.5817">
        <ele>6</ele>
        <time>2023-11-11T20:48:49Z</time>
      </trkpt>
      <trkpt lat="47.1949" lon="-1.58149">
        <ele>6</ele>
        <time>2023-11-11T20:49:13Z</time>
      </trkpt>
      <trkpt lat="47.19503" lon="-1.58128">
        <ele>5</ele>
        <time>2023-11-11T20:49:39Z</time>
      </trkpt>
      <trkpt lat="47.1951" lon="-1.58103">
        <ele>4</ele>
        <time>2023-11-11T20:50:03Z</time>
      </trkpt>
      <trkpt lat="47.19507" lon="-1.58075">
        <ele>4</ele>
        <time>2023-11-11T20:50:29Z</time>
      </trkpt>
      <trkpt lat="47.19495" lon="-1.58054">
        <ele>4</ele>
        <time>2023-11-11T20:50:54Z</time>
      </trkpt>
      <trkpt lat="47.19503" lon="-1.5803">
        <ele>4</ele>
        <time>2023-11-11T20:51:18Z</time>
      </trkpt>
      <trkpt lat="47.1951" lon="-1.58004">
        <ele>4</ele>
        <time>2023-11-11T20:51:43Z</time>
      </trkpt>
      <trkpt lat="47.19509" lon="-1.57977">
        <ele>3</ele>
        <time>2023-11-11T20:52:08Z</time>
      </trkpt>
      <trkpt lat="47.19504" lon="-1.57952">
        <ele>3</ele>
        <time>2023-11-11T20:52:31Z</time>
      </trkpt>
      <trkpt lat="47.19493" lon="-1.579">
        <ele>4</ele>
        <time>2023-11-11T20:53:21Z</time>
      </trkpt>
      <trkpt lat="47.19486" lon="-1.57873">
        <ele>4</ele>
        <time>2023-11-11T20:53:47Z</time>
      </trkpt>
      <trkpt lat="47.19482" lon="-1.57847">
        <ele>5</ele>
        <time>2023-11-11T20:54:11Z</time>
      </trkpt>
      <trkpt lat="47.19486" lon="-1.57819">
        <ele>5</ele>
        <time>2023-11-11T20:54:37Z</time>
      </trkpt>
      <trkpt lat="47.19491" lon="-1.57793">
        <ele>5</ele>
        <time>2023-11-11T20:55:02Z</time>
      </trkpt>
      <trkpt lat="47.19497" lon="-1.57766">
        <ele>5</ele>
        <time>2023-11-11T20:55:27Z</time>
      </trkpt>
      <trkpt lat="47.19507" lon="-1.57714">
        <ele>5</ele>
        <time>2023-11-11T20:56:16Z</time>
      </trkpt>
      <trkpt lat="47.19519" lon="-1.57693">
        <ele>5</ele>
        <time>2023-11-11T20:56:41Z</time>
      </trkpt>
      <trkpt lat="47.19526" lon="-1.57667">
        <ele>5</ele>
        <time>2023-11-11T20:57:07Z</time>
      </trkpt>
      <trkpt lat="47.19541" lon="-1.57652">
        <ele>6</ele>
        <time>2023-11-11T20:57:31Z</time>
      </trkpt>
      <trkpt lat="47.19559" lon="-1.57663">
        <ele>6</ele>
        <time>2023-11-11T20:57:57Z</time>
      </trkpt>
      <trkpt lat="47.19578" lon="-1.5767">
        <ele>6</ele>
        <time>2023-11-11T20:58:23Z</time>
      </trkpt>
      <trkpt lat="47.19596" lon="-1.57676">
        <ele>5</ele>
        <time>2023-11-11T20:58:48Z</time>
      </trkpt>
      <trkpt lat="47.1961" lon="-1.57656">
        <ele>4</ele>
        <time>2023-11-11T20:59:14Z</time>
      </trkpt>
      <trkpt lat="47.19625" lon="-1.57608">
        <ele>4</ele>
        <time>2023-11-11T21:00:02Z</time>
      </trkpt>
      <trkpt lat="47.19631" lon="-1.57582">
        <ele>4</ele>
        <time>2023-11-11T21:00:26Z</time>
      </trkpt>
      <trkpt lat="47.19633" lon="-1.57555">
        <ele>4</ele>
        <time>2023-11-11T21:00:51Z</time>
      </trkpt>
      <trkpt lat="47.19636" lon="-1.57528">
        <ele>4</ele>
        <time>2023-11-11T21:01:16Z</time>
      </trkpt>
      <trkpt lat="47.19641" lon="-1.57502">
        <ele>5</ele>
        <time>2023-11-11T21:01:40Z</time>
      </trkpt>
      <trkpt lat="47.19642" lon="-1.57476">
        <ele>5</ele>
        <time>2023-11-11T21:02:04Z</time>
      </trkpt>
      <trkpt lat="47.19652" lon="-1.57423">
        <ele>4</ele>
        <time>2023-11-11T21:02:54Z</time>
      </trkpt>
      <trkpt lat="47.1966" lon="-1.57398">
        <ele>4</ele>
        <time>2023-11-11T21:03:19Z</time>
      </trkpt>
      <trkpt lat="47.19659" lon="-1.57372">
        <ele>4</ele>
        <time>2023-11-11T21:03:43Z</time>
      </trkpt>
      <trkpt lat="47.19661" lon="-1.57344">
        <ele>4</ele>
        <time>2023-11-11T21:04:08Z</time>
      </trkpt>
      <trkpt lat="47.19661" lon="-1.57316">
        <ele>5</ele>
        <time>2023-11-11T21:04:33Z</time>
      </trkpt>
      <trkpt lat="47.19665" lon="-1.5729">
        <ele>5</ele>
        <time>2023-11-11T21:04:58Z</time>
      </trkpt>
      <trkpt lat="47.19668" lon="-1.57263">
        <ele>6</ele>
        <time>2023-11-11T21:05:22Z</time>
      </trkpt>
      <trkpt lat="47.19657" lon="-1.5724">
        <ele>6</ele>
        <time>2023-11-11T21:05:48Z</time>
      </trkpt>
      <trkpt lat="47.19641" lon="-1.57226">
        <ele>7</ele>
        <time>2023-11-11T21:06:13Z</time>
      </trkpt>
      <trkpt lat="47.19624" lon="-1.57216">
        <ele>7</ele>
        <time>2023-11-11T21:06:37Z</time>
      </trkpt>
      <trkpt lat="47.19606" lon="-1.57206">
        <ele>7</ele>
        <time>2023-11-11T21:07:03Z</time>
      </trkpt>
      <trkpt lat="47.19596" lon="-1.57184">
        <ele>7</ele>
        <time>2023-11-11T21:07:27Z</time>
      </trkpt>
      <trkpt lat="47.19596" lon="-1.57157">
        <ele>7</ele>
        <time>2023-11-11T21:07:51Z</time>
      </trkpt>
      <trkpt lat="47.19598" lon="-1.57129">
        <ele>7</ele>
        <time>2023-11-11T21:08:17Z</time>
      </trkpt>
      <trkpt lat="47.196" lon="-1.57101">
        <ele>7</ele>
        <time>2023-11-11T21:08:42Z</time>
      </trkpt>
      <trkpt lat="47.19602" lon="-1.57075">
        <ele>7</ele>
        <time>2023-11-11T21:09:06Z</time>
      </trkpt>
      <trkpt lat="47.19601" lon="-1.57046">
        <ele>7</ele>
        <time>2023-11-11T21:09:32Z</time>
      </trkpt>
      <trkpt lat="47.19603" lon="-1.57019">
        <ele>7</ele>
        <time>2023-11-11T21:09:57Z</time>
      </trkpt>
      <trkpt lat="47.19602" lon="-1.56993">
        <ele>6</ele>
        <time>2023-11-11T21:10:21Z</time>
      </trkpt>
      <trkpt lat="47.19607" lon="-1.56967">
        <ele>6</ele>
        <time>2023-11-11T21:10:45Z</time>
      </trkpt>
      <trkpt lat="47.19611" lon="-1.5694">
        <ele>5</ele>
        <time>2023-11-11T21:11:10Z</time>
      </trkpt>
      <trkpt lat="47.19614" lon="-1.56914">
        <ele>5</ele>
        <time>2023-11-11T21:11:34Z</time>
      </trkpt>
      <trkpt lat="47.19614" lon="-1.56887">
        <ele>5</ele>
        <time>2023-11-11T21:11:59Z</time>
      </trkpt>
      <trkpt lat="47.19617" lon="-1.56859">
        <ele>5</ele>
        <time>2023-11-11T21:12:24Z</time>
      </trkpt>
      <trkpt lat="47.19618" lon="-1.56831">
        <ele>5</ele>
        <time>2023-11-11T21:12:50Z</time>
      </trkpt>
      <trkpt lat="47.19619" lon="-1.56805">
        <ele>5</ele>
        <time>2023-11-11T21:13:13Z</time>
      </trkpt>
      <trkpt lat="47.19621" lon="-1.56778">
        <ele>5</ele>
        <time>2023-11-11T21:13:38Z</time>
      </trkpt>
      <trkpt lat="47.19623" lon="-1.56723">
        <ele>5</ele>
        <time>2023-11-11T21:14:28Z</time>
      </trkpt>
      <trkpt lat="47.19626" lon="-1.56697">
        <ele>5</ele>
        <time>2023-11-11T21:14:52Z</time>
      </trkpt>
      <trkpt lat="47.19631" lon="-1.56643">
        <ele>5</ele>
        <time>2023-11-11T21:15:41Z</time>
      </trkpt>
      <trkpt lat="47.19635" lon="-1.56587">
        <ele>6</ele>
        <time>2023-11-11T21:16:32Z</time>
      </trkpt>
      <trkpt lat="47.19637" lon="-1.5656">
        <ele>6</ele>
        <time>2023-11-11T21:16:57Z</time>
      </trkpt>
      <trkpt lat="47.19638" lon="-1.56533">
        <ele>6</ele>
        <time>2023-11-11T21:17:21Z</time>
      </trkpt>
      <trkpt lat="47.19637" lon="-1.56505">
        <ele>6</ele>
        <time>2023-11-11T21:17:47Z</time>
      </trkpt>
      <trkpt lat="47.19636" lon="-1.56478">
        <ele>6</ele>
        <time>2023-11-11T21:18:11Z</time>
      </trkpt>
      <trkpt lat="47.19636" lon="-1.5645">
        <ele>6</ele>
        <time>2023-11-11T21:18:37Z</time>
      </trkpt>
      <trkpt lat="47.19632" lon="-1.56424">
        <ele>6</ele>
        <time>2023-11-11T21:19:01Z</time>
      </trkpt>
      <trkpt lat="47.19629" lon="-1.5637">
        <ele>6</ele>
        <time>2023-11-11T21:19:50Z</time>
      </trkpt>
      <trkpt lat="47.19629" lon="-1.56344">
        <ele>6</ele>
        <time>2023-11-11T21:20:14Z</time>
      </trkpt>
      <trkpt lat="47.19634" lon="-1.56318">
        <ele>5</ele>
        <time>2023-11-11T21:20:38Z</time>
      </trkpt>
      <trkpt lat="47.19636" lon="-1.56291">
        <ele>5</ele>
        <time>2023-11-11T21:21:03Z</time>
      </trkpt>
      <trkpt lat="47.19636" lon="-1.56264">
        <ele>4</ele>
        <time>2023-11-11T21:21:27Z</time>
      </trkpt>
      <trkpt lat="47.19629" lon="-1.5624">
        <ele>4</ele>
        <time>2023-11-11T21:21:51Z</time>
      </trkpt>
      <trkpt lat="47.1961" lon="-1.56238">
        <ele>4</ele>
        <time>2023-11-11T21:22:16Z</time>
      </trkpt>
      <trkpt lat="47.19592" lon="-1.5624">
        <ele>5</ele>
        <time>2023-11-11T21:22:41Z</time>
      </trkpt>
      <trkpt lat="47.19579" lon="-1.5622">
        <ele>5</ele>
        <time>2023-11-11T21:23:06Z</time>
      </trkpt>
      <trkpt lat="47.19597" lon="-1.56212">
        <ele>5</ele>
        <time>2023-11-11T21:23:31Z</time>
      </trkpt>
      <trkpt lat="47.19616" lon="-1.56208">
        <ele>5</ele>
        <time>2023-11-11T21:23:56Z</time>
      </trkpt>
      <trkpt lat="47.19632" lon="-1.56194">
        <ele>5</ele>
        <time>2023-11-11T21:24:21Z</time>
      </trkpt>
      <trkpt lat="47.19634" lon="-1.56167">
        <ele>5</ele>
        <time>2023-11-11T21:24:46Z</time>
      </trkpt>
      <trkpt lat="47.19635" lon="-1.5614">
        <ele>5</ele>
        <time>2023-11-11T21:25:10Z</time>
      </trkpt>
      <trkpt lat="47.1964" lon="-1.56086">
        <ele>5</ele>
        <time>2023-11-11T21:26:00Z</time>
      </trkpt>
      <trkpt lat="47.1964" lon="-1.56059">
        <ele>5</ele>
        <time>2023-11-11T21:26:24Z</time>
      </trkpt>
      <trkpt lat="47.19651" lon="-1.56037">
        <ele>4</ele>
        <time>2023-11-11T21:26:49Z</time>
      </trkpt>
      <trkpt lat="47.19653" lon="-1.5601">
        <ele>4</ele>
        <time>2023-11-11T21:27:14Z</time>
      </trkpt>
      <trkpt lat="47.19655" lon="-1.55982">
        <ele>4</ele>
        <time>2023-11-11T21:27:39Z</time>
      </trkpt>
      <trkpt lat="47.19655" lon="-1.55955">
        <ele>4</ele>
        <time>2023-11-11T21:28:04Z</time>
      </trkpt>
      <trkpt lat="47.19657" lon="-1.55928">
        <ele>4</ele>
        <time>2023-11-11T21:28:28Z</time>
      </trkpt>
      <trkpt lat="47.19659" lon="-1.559">
        <ele>4</ele>
        <time>2023-11-11T21:28:54Z</time>
      </trkpt>
      <trkpt lat="47.19661" lon="-1.55874">
        <ele>5</ele>
        <time>2023-11-11T21:29:17Z</time>
      </trkpt>
      <trkpt lat="47.19661" lon="-1.55846">
        <ele>6</ele>
        <time>2023-11-11T21:29:43Z</time>
      </trkpt>
      <trkpt lat="47.19669" lon="-1.55822">
        <ele>6</ele>
        <time>2023-11-11T21:30:07Z</time>
      </trkpt>
      <trkpt lat="47.19678" lon="-1.55799">
        <ele>5</ele>
        <time>2023-11-11T21:30:31Z</time>
      </trkpt>
      <trkpt lat="47.19674" lon="-1.55772">
        <ele>5</ele>
        <time>2023-11-11T21:30:56Z</time>
      </trkpt>
      <trkpt lat="47.19662" lon="-1.55752">
        <ele>5</ele>
        <time>2023-11-11T21:31:20Z</time>
      </trkpt>
      <trkpt lat="47.19655" lon="-1.55727">
        <ele>5</ele>
        <time>2023-11-11T21:31:45Z</time>
      </trkpt>
      <trkpt lat="47.19649" lon="-1.557">
        <ele>5</ele>
        <time>2023-11-11T21:32:11Z</time>
      </trkpt>
      <trkpt lat="47.19643" lon="-1.55675">
        <ele>5</ele>
        <time>2023-11-11T21:32:35Z</time>
      </trkpt>
      <trkpt lat="47.19638" lon="-1.55648">
        <ele>5</ele>
        <time>2023-11-11T21:33:00Z</time>
      </trkpt>
      <trkpt lat="47.19626" lon="-1.55597">
        <ele>5</ele>
        <time>2023-11-11T21:33:49Z</time>
      </trkpt>
      <trkpt lat="47.19621" lon="-1.55571">
        <ele>4</ele>
        <time>2023-11-11T21:34:14Z</time>
      </trkpt>
      <trkpt lat="47.19638" lon="-1.55561">
        <ele>4</ele>
        <time>2023-11-11T21:34:38Z</time>
      </trkpt>
      <trkpt lat="47.19657" lon="-1.55565">
        <ele>4</ele>
        <time>2023-11-11T21:35:04Z</time>
      </trkpt>
      <trkpt lat="47.19673" lon="-1.55551">
        <ele>3</ele>
        <time>2023-11-11T21:35:28Z</time>
      </trkpt>
      <trkpt lat="47.19687" lon="-1.55534">
        <ele>2</ele>
        <time>2023-11-11T21:35:53Z</time>
      </trkpt>
      <trkpt lat="47.19681" lon="-1.55507">
        <ele>2</ele>
        <time>2023-11-11T21:36:18Z</time>
      </trkpt>
      <trkpt lat="47.19664" lon="-1.55497">
        <ele>2</ele>
        <time>2023-11-11T21:36:43Z</time>
      </trkpt>
      <trkpt lat="47.19645" lon="-1.55498">
        <ele>3</ele>
        <time>2023-11-11T21:37:08Z</time>
      </trkpt>
      <trkpt lat="47.19629" lon="-1.55511">
        <ele>4</ele>
        <time>2023-11-11T21:37:33Z</time>
      </trkpt>
      <trkpt lat="47.19611" lon="-1.55514">
        <ele>4</ele>
        <time>2023-11-11T21:37:57Z</time>
      </trkpt>
      <trkpt lat="47.19608" lon="-1.55487">
        <ele>4</ele>
        <time>2023-11-11T21:38:22Z</time>
      </trkpt>
      <trkpt lat="47.19603" lon="-1.5546">
        <ele>5</ele>
        <time>2023-11-11T21:38:47Z</time>
      </trkpt>
      <trkpt lat="47.19594" lon="-1.55406">
        <ele>6</ele>
        <time>2023-11-11T21:39:37Z</time>
      </trkpt>
      <trkpt lat="47.19592" lon="-1.55379">
        <ele>7</ele>
        <time>2023-11-11T21:40:02Z</time>
      </trkpt>
      <trkpt lat="47.19591" lon="-1.55351">
        <ele>7</ele>
        <time>2023-11-11T21:40:27Z</time>
      </trkpt>
      <trkpt lat="47.19605" lon="-1.55332">
        <ele>6</ele>
        <time>2023-11-11T21:40:53Z</time>
      </trkpt>
      <trkpt lat="47.19613" lon="-1.55308">
        <ele>5</ele>
        <time>2023-11-11T21:41:17Z</time>
      </trkpt>
      <trkpt lat="47.1963" lon="-1.55292">
        <ele>5</ele>
        <time>2023-11-11T21:41:44Z</time>
      </trkpt>
      <trkpt lat="47.19649" lon="-1.55291">
        <ele>4</ele>
        <time>2023-11-11T21:42:09Z</time>
      </trkpt>
      <trkpt lat="47.19659" lon="-1.55268">
        <ele>3</ele>
        <time>2023-11-11T21:42:34Z</time>
      </trkpt>
      <trkpt lat="47.19663" lon="-1.55242">
        <ele>3</ele>
        <time>2023-11-11T21:42:58Z</time>
      </trkpt>
      <trkpt lat="47.1968" lon="-1.55232">
        <ele>3</ele>
        <time>2023-11-11T21:43:23Z</time>
      </trkpt>
      <trkpt lat="47.19682" lon="-1.55205">
        <ele>3</ele>
        <time>2023-11-11T21:43:47Z</time>
      </trkpt>
      <trkpt lat="47.1968" lon="-1.55178">
        <ele>3</ele>
        <time>2023-11-11T21:44:12Z</time>
      </trkpt>
      <trkpt lat="47.19678" lon="-1.55151">
        <ele>4</ele>
        <time>2023-11-11T21:44:37Z</time>
      </trkpt>
      <trkpt lat="47.19678" lon="-1.55123">
        <ele>4</ele>
        <time>2023-11-11T21:45:02Z</time>
      </trkpt>
      <trkpt lat="47.19677" lon="-1.55096">
        <ele>5</ele>
        <time>2023-11-11T21:45:27Z</time>
      </trkpt>
      <trkpt lat="47.19675" lon="-1.55069">
        <ele>6</ele>
        <time>2023-11-11T21:45:51Z</time>
      </trkpt>
      <trkpt lat="47.19674" lon="-1.55042">
        <ele>6</ele>
        <time>2023-11-11T21:46:16Z</time>
      </trkpt>
      <trkpt lat="47.19675" lon="-1.55014">
        <ele>7</ele>
        <time>2023-11-11T21:46:41Z</time>
      </trkpt>
      <trkpt lat="47.19687" lon="-1.54993">
        <ele>6</ele>
        <time>2023-11-11T21:47:06Z</time>
      </trkpt>
      <trkpt lat="47.19705" lon="-1.54993">
        <ele>4</ele>
        <time>2023-11-11T21:47:30Z</time>
      </trkpt>
      <trkpt lat="47.19717" lon="-1.54972">
        <ele>3</ele>
        <time>2023-11-11T21:47:55Z</time>
      </trkpt>
      <trkpt lat="47.19704" lon="-1.54952">
        <ele>4</ele>
        <time>2023-11-11T21:48:20Z</time>
      </trkpt>
      <trkpt lat="47.19684" lon="-1.5495">
        <ele>5</ele>
        <time>2023-11-11T21:48:47Z</time>
      </trkpt>
      <trkpt lat="47.19677" lon="-1.54925">
        <ele>5</ele>
        <time>2023-11-11T21:49:11Z</time>
      </trkpt>
      <trkpt lat="47.1968" lon="-1.54898">
        <ele>5</ele>
        <time>2023-11-11T21:49:36Z</time>
      </trkpt>
      <trkpt lat="47.19681" lon="-1.54871">
        <ele>5</ele>
        <time>2023-11-11T21:50:01Z</time>
      </trkpt>
      <trkpt lat="47.19676" lon="-1.54844">
        <ele>5</ele>
        <time>2023-11-11T21:50:26Z</time>
      </trkpt>
      <trkpt lat="47.19671" lon="-1.54818">
        <ele>5</ele>
        <time>2023-11-11T21:50:50Z</time>
      </trkpt>
      <trkpt lat="47.19662" lon="-1.54793">
        <ele>5</ele>
        <time>2023-11-11T21:51:16Z</time>
      </trkpt>
      <trkpt lat="47.19651" lon="-1.54772">
        <ele>4</ele>
        <time>2023-11-11T21:51:40Z</time>
      </trkpt>
      <trkpt lat="47.19639" lon="-1.54752">
        <ele>4</ele>
        <time>2023-11-11T21:52:04Z</time>
      </trkpt>
      <trkpt lat="47.19627" lon="-1.54732">
        <ele>4</ele>
        <time>2023-11-11T21:52:29Z</time>
      </trkpt>
      <trkpt lat="47.1961" lon="-1.5472">
        <ele>4</ele>
        <time>2023-11-11T21:52:54Z</time>
      </trkpt>
      <trkpt lat="47.19626" lon="-1.54733">
        <ele>4</ele>
        <time>2023-11-11T21:53:18Z</time>
      </trkpt>
      <trkpt lat="47.19653" lon="-1.54772">
        <ele>4</ele>
        <time>2023-11-11T21:54:09Z</time>
      </trkpt>
      <trkpt lat="47.19666" lon="-1.54794">
        <ele>5</ele>
        <time>2023-11-11T21:54:35Z</time>
      </trkpt>
      <trkpt lat="47.1967" lon="-1.5482">
        <ele>5</ele>
        <time>2023-11-11T21:54:59Z</time>
      </trkpt>
      <trkpt lat="47.19678" lon="-1.54845">
        <ele>5</ele>
        <time>2023-11-11T21:55:24Z</time>
      </trkpt>
      <trkpt lat="47.19683" lon="-1.54872">
        <ele>5</ele>
        <time>2023-11-11T21:55:50Z</time>
      </trkpt>
      <trkpt lat="47.1968" lon="-1.54899">
        <ele>5</ele>
        <time>2023-11-11T21:56:14Z</time>
      </trkpt>
      <trkpt lat="47.19676" lon="-1.54925">
        <ele>6</ele>
        <time>2023-11-11T21:56:39Z</time>
      </trkpt>
      <trkpt lat="47.1968" lon="-1.54952">
        <ele>6</ele>
        <time>2023-11-11T21:57:04Z</time>
      </trkpt>
      <trkpt lat="47.19698" lon="-1.54952">
        <ele>4</ele>
        <time>2023-11-11T21:57:28Z</time>
      </trkpt>
      <trkpt lat="47.19715" lon="-1.54964">
        <ele>3</ele>
        <time>2023-11-11T21:57:53Z</time>
      </trkpt>
      <trkpt lat="47.1971" lon="-1.5499">
        <ele>4</ele>
        <time>2023-11-11T21:58:17Z</time>
      </trkpt>
      <trkpt lat="47.19692" lon="-1.54994">
        <ele>5</ele>
        <time>2023-11-11T21:58:42Z</time>
      </trkpt>
      <trkpt lat="47.19706" lon="-1.54976">
        <ele>4</ele>
        <time>2023-11-11T21:59:06Z</time>
      </trkpt>
      <trkpt lat="47.19725" lon="-1.54973">
        <ele>2</ele>
        <time>2023-11-11T21:59:32Z</time>
      </trkpt>
      <trkpt lat="47.19744" lon="-1.54973">
        <ele>1</ele>
        <time>2023-11-11T21:59:57Z</time>
      </trkpt>
      <trkpt lat="47.19763" lon="-1.54972">
        <time>2023-11-11T22:00:23Z</time>
      </trkpt>
      <trkpt lat="47.19789" lon="-1.54972">
        <time>2023-11-11T22:00:57Z</time>
      </trkpt>
      <trkpt lat="47.19811" lon="-1.54971">
        <time>2023-11-11T22:01:27Z</time>
      </trkpt>
      <trkpt lat="47.1983" lon="-1.54973">
        <time>2023-11-11T22:01:52Z</time>
      </trkpt>
      <trkpt lat="47.19849" lon="-1.5497">
        <time>2023-11-11T22:02:18Z</time>
      </trkpt>
      <trkpt lat="47.19867" lon="-1.54971">
        <time>2023-11-11T22:02:42Z</time>
      </trkpt>
      <trkpt lat="47.19888" lon="-1.54971">
        <ele>1</ele>
        <time>2023-11-11T22:03:10Z</time>
      </trkpt>
      <trkpt lat="47.19907" lon="-1.54974">
        <ele>1</ele>
        <time>2023-11-11T22:03:35Z</time>
      </trkpt>
      <trkpt lat="47.19925" lon="-1.54971">
        <ele>1</ele>
        <time>2023-11-11T22:03:59Z</time>
      </trkpt>
      <trkpt lat="47.19943" lon="-1.5497">
        <ele>2</ele>
        <time>2023-11-11T22:04:23Z</time>
      </trkpt>
      <trkpt lat="47.19961" lon="-1.54975">
        <ele>3</ele>
        <time>2023-11-11T22:04:48Z</time>
      </trkpt>
      <trkpt lat="47.1998" lon="-1.54976">
        <ele>4</ele>
        <time>2023-11-11T22:05:13Z</time>
      </trkpt>
      <trkpt lat="47.19999" lon="-1.54974">
        <ele>6</ele>
        <time>2023-11-11T22:05:39Z</time>
      </trkpt>
      <trkpt lat="47.20017" lon="-1.54969">
        <ele>6</ele>
        <time>2023-11-11T22:06:03Z</time>
      </trkpt>
      <trkpt lat="47.20036" lon="-1.54964">
        <ele>7</ele>
        <time>2023-11-11T22:06:29Z</time>
      </trkpt>
      <trkpt lat="47.20054" lon="-1.54957">
        <ele>7</ele>
        <time>2023-11-11T22:06:54Z</time>
      </trkpt>
      <trkpt lat="47.20072" lon="-1.54948">
        <ele>8</ele>
        <time>2023-11-11T22:07:19Z</time>
      </trkpt>
      <trkpt lat="47.20088" lon="-1.54936">
        <ele>8</ele>
        <time>2023-11-11T22:07:43Z</time>
      </trkpt>
      <trkpt lat="47.20104" lon="-1.54923">
        <ele>8</ele>
        <time>2023-11-11T22:08:07Z</time>
      </trkpt>
      <trkpt lat="47.20136" lon="-1.54894">
        <ele>8</ele>
        <time>2023-11-11T22:08:58Z</time>
      </trkpt>
      <trkpt lat="47.20148" lon="-1.54874">
        <ele>8</ele>
        <time>2023-11-11T22:09:22Z</time>
      </trkpt>
      <trkpt lat="47.20149" lon="-1.54846">
        <ele>8</ele>
        <time>2023-11-11T22:09:47Z</time>
      </trkpt>
      <trkpt lat="47.20147" lon="-1.54819">
        <ele>8</ele>
        <time>2023-11-11T22:10:12Z</time>
      </trkpt>
      <trkpt lat="47.20149" lon="-1.54793">
        <ele>9</ele>
        <time>2023-11-11T22:10:36Z</time>
      </trkpt>
      <trkpt lat="47.20144" lon="-1.54765">
        <ele>9</ele>
        <time>2023-11-11T22:11:02Z</time>
      </trkpt>
      <trkpt lat="47.20147" lon="-1.54739">
        <ele>9</ele>
        <time>2023-11-11T22:11:26Z</time>
      </trkpt>
      <trkpt lat="47.20145" lon="-1.5471">
        <ele>9</ele>
        <time>2023-11-11T22:11:52Z</time>
      </trkpt>
      <trkpt lat="47.20143" lon="-1.54683">
        <ele>10</ele>
        <time>2023-11-11T22:12:17Z</time>
      </trkpt>
      <trkpt lat="47.2013" lon="-1.54663">
        <ele>10</ele>
        <time>2023-11-11T22:12:42Z</time>
      </trkpt>
      <trkpt lat="47.20127" lon="-1.54637">
        <ele>10</ele>
        <time>2023-11-11T22:13:06Z</time>
      </trkpt>
      <trkpt lat="47.20115" lon="-1.54614">
        <ele>11</ele>
        <time>2023-11-11T22:13:32Z</time>
      </trkpt>
      <trkpt lat="47.20104" lon="-1.54594">
        <ele>11</ele>
        <time>2023-11-11T22:13:55Z</time>
      </trkpt>
      <trkpt lat="47.20096" lon="-1.54568">
        <ele>12</ele>
        <time>2023-11-11T22:14:21Z</time>
      </trkpt>
      <trkpt lat="47.20082" lon="-1.54548">
        <ele>13</ele>
        <time>2023-11-11T22:14:47Z</time>
      </trkpt>
      <trkpt lat="47.20066" lon="-1.54533">
        <ele>12</ele>
        <time>2023-11-11T22:15:13Z</time>
      </trkpt>
      <trkpt lat="47.20057" lon="-1.5451">
        <ele>11</ele>
        <time>2023-11-11T22:15:37Z</time>
      </trkpt>
      <trkpt lat="47.20045" lon="-1.54489">
        <ele>10</ele>
        <time>2023-11-11T22:16:02Z</time>
      </trkpt>
      <trkpt lat="47.20034" lon="-1.54468">
        <ele>8</ele>
        <time>2023-11-11T22:16:26Z</time>
      </trkpt>
      <trkpt lat="47.20023" lon="-1.54445">
        <ele>6</ele>
        <time>2023-11-11T22:16:51Z</time>
      </trkpt>
      <trkpt lat="47.20012" lon="-1.54423">
        <ele>4</ele>
        <time>2023-11-11T22:17:16Z</time>
      </trkpt>
      <trkpt lat="47.20018" lon="-1.54397">
        <ele>5</ele>
        <time>2023-11-11T22:17:41Z</time>
      </trkpt>
      <trkpt lat="47.20029" lon="-1.54375">
        <ele>5</ele>
        <time>2023-11-11T22:18:06Z</time>
      </trkpt>
      <trkpt lat="47.20046" lon="-1.54387">
        <ele>7</ele>
        <time>2023-11-11T22:18:31Z</time>
      </trkpt>
      <trkpt lat="47.20063" lon="-1.544">
        <ele>8</ele>
        <time>2023-11-11T22:18:56Z</time>
      </trkpt>
      <trkpt lat="47.2008" lon="-1.54412">
        <ele>10</ele>
        <time>2023-11-11T22:19:21Z</time>
      </trkpt>
      <trkpt lat="47.20097" lon="-1.54422">
        <ele>11</ele>
        <time>2023-11-11T22:19:46Z</time>
      </trkpt>
      <trkpt lat="47.20112" lon="-1.54439">
        <ele>12</ele>
        <time>2023-11-11T22:20:11Z</time>
      </trkpt>
      <trkpt lat="47.20125" lon="-1.54459">
        <ele>12</ele>
        <time>2023-11-11T22:20:36Z</time>
      </trkpt>
      <trkpt lat="47.20143" lon="-1.54468">
        <ele>12</ele>
        <time>2023-11-11T22:21:02Z</time>
      </trkpt>
      <trkpt lat="47.20157" lon="-1.54487">
        <ele>12</ele>
        <time>2023-11-11T22:21:27Z</time>
      </trkpt>
      <trkpt lat="47.20172" lon="-1.54502">
        <ele>12</ele>
        <time>2023-11-11T22:21:51Z</time>
      </trkpt>
      <trkpt lat="47.2019" lon="-1.54515">
        <ele>11</ele>
        <time>2023-11-11T22:22:18Z</time>
      </trkpt>
      <trkpt lat="47.20208" lon="-1.54526">
        <ele>11</ele>
        <time>2023-11-11T22:22:44Z</time>
      </trkpt>
      <trkpt lat="47.20229" lon="-1.54536">
        <ele>10</ele>
        <time>2023-11-11T22:23:13Z</time>
      </trkpt>
      <trkpt lat="47.20254" lon="-1.5455">
        <ele>9</ele>
        <time>2023-11-11T22:23:49Z</time>
      </trkpt>
      <trkpt lat="47.20308" lon="-1.54587">
        <ele>9</ele>
        <time>2023-11-11T22:25:09Z</time>
      </trkpt>
      <trkpt lat="47.20351" lon="-1.54615">
        <ele>9</ele>
        <time>2023-11-11T22:26:11Z</time>
      </trkpt>
      <trkpt lat="47.20387" lon="-1.54638">
        <ele>9</ele>
        <time>2023-11-11T22:27:04Z</time>
      </trkpt>
      <trkpt lat="47.20404" lon="-1.5465">
        <ele>8</ele>
        <time>2023-11-11T22:27:29Z</time>
      </trkpt>
    </trkseg>
  </trk>
</gpx>